sensor_id;sensor_type;location;lat;lon;timestamp;temperature;humidity
22923;DHT22;11627;51.322;22.816;2022-12-01T00:01:45;1.70;53.90
22923;DHT22;11627;51.322;22.816;2022-12-01T00:04:10;1.80;53.80
22923;DHT22;11627;51.322;22.816;2022-12-01T00:06:36;1.70;52.60
22923;DHT22;11627;51.322;22.816;2022-12-01T00:09:01;1.70;52.90
22923;DHT22;11627;51.322;22.816;2022-12-01T00:11:46;1.70;53.00
22923;DHT22;11627;51.322;22.816;2022-12-01T00:14:11;2.20;53.30
22923;DHT22;11627;51.322;22.816;2022-12-01T00:16:37;1.70;54.50
22923;DHT22;11627;51.322;22.816;2022-12-01T00:19:04;1.80;54.60
22923;DHT22;11627;51.322;22.816;2022-12-01T00:21:30;1.80;53.50
22923;DHT22;11627;51.322;22.816;2022-12-01T00:23:56;1.80;52.50
22923;DHT22;11627;51.322;22.816;2022-12-01T00:26:24;1.70;53.30
22923;DHT22;11627;51.322;22.816;2022-12-01T00:28:51;1.80;53.00
22923;DHT22;11627;51.322;22.816;2022-12-01T00:31:17;1.80;51.50
22923;DHT22;11627;51.322;22.816;2022-12-01T00:33:43;1.80;50.50
22923;DHT22;11627;51.322;22.816;2022-12-01T00:36:10;1.80;51.80
22923;DHT22;11627;51.322;22.816;2022-12-01T00:38:36;1.70;52.80
22923;DHT22;11627;51.322;22.816;2022-12-01T00:41:02;2.10;54.00
22923;DHT22;11627;51.322;22.816;2022-12-01T00:43:29;1.70;54.20
22923;DHT22;11627;51.322;22.816;2022-12-01T00:45:55;1.70;54.60
22923;DHT22;11627;51.322;22.816;2022-12-01T00:48:21;1.70;56.30
22923;DHT22;11627;51.322;22.816;2022-12-01T00:50:46;1.70;57.00
22923;DHT22;11627;51.322;22.816;2022-12-01T00:53:13;1.70;57.40
22923;DHT22;11627;51.322;22.816;2022-12-01T00:55:38;1.80;56.90
22923;DHT22;11627;51.322;22.816;2022-12-01T00:58:05;1.70;57.80
22923;DHT22;11627;51.322;22.816;2022-12-01T01:00:31;1.70;57.90
22923;DHT22;11627;51.322;22.816;2022-12-01T01:02:57;1.70;57.00
22923;DHT22;11627;51.322;22.816;2022-12-01T01:05:22;1.70;56.50
22923;DHT22;11627;51.322;22.816;2022-12-01T01:07:48;1.70;56.80
22923;DHT22;11627;51.322;22.816;2022-12-01T01:10:13;1.70;57.00
22923;DHT22;11627;51.322;22.816;2022-12-01T01:12:39;1.70;56.40
22923;DHT22;11627;51.322;22.816;2022-12-01T01:15:05;1.70;56.40
22923;DHT22;11627;51.322;22.816;2022-12-01T01:17:33;1.70;56.70
22923;DHT22;11627;51.322;22.816;2022-12-01T01:19:59;1.70;56.90
22923;DHT22;11627;51.322;22.816;2022-12-01T01:22:24;1.80;57.80
22923;DHT22;11627;51.322;22.816;2022-12-01T01:24:50;2.10;56.50
22923;DHT22;11627;51.322;22.816;2022-12-01T01:27:15;1.60;57.40
22923;DHT22;11627;51.322;22.816;2022-12-01T01:29:41;1.50;59.10
22923;DHT22;11627;51.322;22.816;2022-12-01T01:32:07;1.60;60.50
22923;DHT22;11627;51.322;22.816;2022-12-01T01:34:33;1.60;60.90
22923;DHT22;11627;51.322;22.816;2022-12-01T01:36:58;1.60;60.10
22923;DHT22;11627;51.322;22.816;2022-12-01T01:39:24;1.60;59.90
22923;DHT22;11627;51.322;22.816;2022-12-01T01:41:50;1.70;58.20
22923;DHT22;11627;51.322;22.816;2022-12-01T01:47:06;1.60;58.00
22923;DHT22;11627;51.322;22.816;2022-12-01T01:49:32;1.60;58.10
22923;DHT22;11627;51.322;22.816;2022-12-01T01:51:57;1.60;58.60
22923;DHT22;11627;51.322;22.816;2022-12-01T01:54:27;2.20;59.50
22923;DHT22;11627;51.322;22.816;2022-12-01T01:56:56;1.60;58.30
22923;DHT22;11627;51.322;22.816;2022-12-01T01:59:27;1.60;58.90
22923;DHT22;11627;51.322;22.816;2022-12-01T02:02:03;1.90;58.90
22923;DHT22;11627;51.322;22.816;2022-12-01T02:04:32;1.60;58.60
22923;DHT22;11627;51.322;22.816;2022-12-01T02:06:59;1.70;58.90
22923;DHT22;11627;51.322;22.816;2022-12-01T02:09:25;1.60;57.80
22923;DHT22;11627;51.322;22.816;2022-12-01T02:15:05;1.60;56.70
22923;DHT22;11627;51.322;22.816;2022-12-01T02:18:11;1.60;56.70
22923;DHT22;11627;51.322;22.816;2022-12-01T02:26:29;1.50;58.00
22923;DHT22;11627;51.322;22.816;2022-12-01T02:34:23;1.50;60.30
22923;DHT22;11627;51.322;22.816;2022-12-01T02:39:48;1.50;59.30
22923;DHT22;11627;51.322;22.816;2022-12-01T02:42:22;1.50;58.90
22923;DHT22;11627;51.322;22.816;2022-12-01T02:45:13;1.50;58.80
22923;DHT22;11627;51.322;22.816;2022-12-01T02:47:43;1.50;58.80
22923;DHT22;11627;51.322;22.816;2022-12-01T02:50:10;1.50;58.80
22923;DHT22;11627;51.322;22.816;2022-12-01T02:52:39;1.90;59.00
22923;DHT22;11627;51.322;22.816;2022-12-01T02:55:05;1.50;59.10
22923;DHT22;11627;51.322;22.816;2022-12-01T02:57:32;1.50;58.90
22923;DHT22;11627;51.322;22.816;2022-12-01T02:59:58;1.50;56.20
22923;DHT22;11627;51.322;22.816;2022-12-01T03:13:00;1.50;50.80
22923;DHT22;11627;51.322;22.816;2022-12-01T03:21:30;1.60;47.60
22923;DHT22;11627;51.322;22.816;2022-12-01T03:24:03;1.50;46.90
22923;DHT22;11627;51.322;22.816;2022-12-01T03:26:32;1.50;46.70
22923;DHT22;11627;51.322;22.816;2022-12-01T03:29:06;1.50;46.50
22923;DHT22;11627;51.322;22.816;2022-12-01T03:31:37;1.50;45.50
22923;DHT22;11627;51.322;22.816;2022-12-01T03:34:16;1.50;45.40
22923;DHT22;11627;51.322;22.816;2022-12-01T03:36:47;1.60;42.80
22923;DHT22;11627;51.322;22.816;2022-12-01T03:39:19;1.60;40.60
22923;DHT22;11627;51.322;22.816;2022-12-01T03:41:52;1.50;39.80
22923;DHT22;11627;51.322;22.816;2022-12-01T03:44:26;1.60;40.10
22923;DHT22;11627;51.322;22.816;2022-12-01T03:47:00;1.50;41.00
22923;DHT22;11627;51.322;22.816;2022-12-01T03:49:29;1.50;42.30
22923;DHT22;11627;51.322;22.816;2022-12-01T03:54:59;1.50;42.70
22923;DHT22;11627;51.322;22.816;2022-12-01T03:57:30;1.50;45.30
22923;DHT22;11627;51.322;22.816;2022-12-01T03:59:59;1.50;44.10
22923;DHT22;11627;51.322;22.816;2022-12-01T04:02:26;1.40;46.00
22923;DHT22;11627;51.322;22.816;2022-12-01T04:04:52;1.40;46.00
22923;DHT22;11627;51.322;22.816;2022-12-01T04:07:19;1.50;44.90
22923;DHT22;11627;51.322;22.816;2022-12-01T04:09:44;1.50;45.30
22923;DHT22;11627;51.322;22.816;2022-12-01T04:12:12;1.40;46.30
22923;DHT22;11627;51.322;22.816;2022-12-01T04:15:07;1.40;48.10
22923;DHT22;11627;51.322;22.816;2022-12-01T04:17:33;1.40;46.50
22923;DHT22;11627;51.322;22.816;2022-12-01T04:19:59;1.40;48.10
22923;DHT22;11627;51.322;22.816;2022-12-01T04:22:25;1.40;49.20
22923;DHT22;11627;51.322;22.816;2022-12-01T04:24:51;1.40;49.10
22923;DHT22;11627;51.322;22.816;2022-12-01T04:27:17;1.40;48.30
22923;DHT22;11627;51.322;22.816;2022-12-01T04:29:43;1.40;48.70
22923;DHT22;11627;51.322;22.816;2022-12-01T04:32:08;1.40;48.90
22923;DHT22;11627;51.322;22.816;2022-12-01T04:34:34;1.30;48.90
22923;DHT22;11627;51.322;22.816;2022-12-01T04:37:00;1.40;49.30
22923;DHT22;11627;51.322;22.816;2022-12-01T04:39:25;1.40;47.30
22923;DHT22;11627;51.322;22.816;2022-12-01T04:41:51;1.50;47.50
22923;DHT22;11627;51.322;22.816;2022-12-01T04:44:16;1.40;45.60
22923;DHT22;11627;51.322;22.816;2022-12-01T04:46:42;1.40;45.90
22923;DHT22;11627;51.322;22.816;2022-12-01T04:49:08;1.40;45.90
22923;DHT22;11627;51.322;22.816;2022-12-01T04:51:33;1.50;47.50
22923;DHT22;11627;51.322;22.816;2022-12-01T04:54:01;1.50;44.60
22923;DHT22;11627;51.322;22.816;2022-12-01T04:56:27;1.50;41.90
22923;DHT22;11627;51.322;22.816;2022-12-01T04:58:53;1.50;40.00
22923;DHT22;11627;51.322;22.816;2022-12-01T05:01:18;1.40;40.30
22923;DHT22;11627;51.322;22.816;2022-12-01T05:03:46;1.40;40.40
22923;DHT22;11627;51.322;22.816;2022-12-01T05:06:23;1.50;38.20
22923;DHT22;11627;51.322;22.816;2022-12-01T05:08:50;1.40;38.30
22923;DHT22;11627;51.322;22.816;2022-12-01T05:11:17;1.40;39.00
22923;DHT22;11627;51.322;22.816;2022-12-01T05:13:44;1.40;40.00
22923;DHT22;11627;51.322;22.816;2022-12-01T05:16:28;1.40;40.50
22923;DHT22;11627;51.322;22.816;2022-12-01T05:18:58;1.30;37.60
22923;DHT22;11627;51.322;22.816;2022-12-01T05:21:44;1.30;39.00
22923;DHT22;11627;51.322;22.816;2022-12-01T05:24:11;1.30;39.10
22923;DHT22;11627;51.322;22.816;2022-12-01T05:26:37;1.30;40.30
22923;DHT22;11627;51.322;22.816;2022-12-01T05:29:03;1.30;37.90
22923;DHT22;11627;51.322;22.816;2022-12-01T05:31:28;1.20;39.40
22923;DHT22;11627;51.322;22.816;2022-12-01T05:33:54;1.20;41.60
22923;DHT22;11627;51.322;22.816;2022-12-01T05:36:20;1.30;41.40
22923;DHT22;11627;51.322;22.816;2022-12-01T05:38:45;1.30;40.90
22923;DHT22;11627;51.322;22.816;2022-12-01T05:41:11;1.30;39.60
22923;DHT22;11627;51.322;22.816;2022-12-01T05:43:36;1.20;41.40
22923;DHT22;11627;51.322;22.816;2022-12-01T05:46:02;1.30;43.20
22923;DHT22;11627;51.322;22.816;2022-12-01T05:48:28;1.30;44.50
22923;DHT22;11627;51.322;22.816;2022-12-01T05:50:53;1.30;42.40
22923;DHT22;11627;51.322;22.816;2022-12-01T05:53:19;1.30;41.40
22923;DHT22;11627;51.322;22.816;2022-12-01T05:55:45;1.30;40.60
22923;DHT22;11627;51.322;22.816;2022-12-01T05:58:15;1.30;40.10
22923;DHT22;11627;51.322;22.816;2022-12-01T06:00:41;1.20;40.60
22923;DHT22;11627;51.322;22.816;2022-12-01T06:03:07;1.20;42.70
22923;DHT22;11627;51.322;22.816;2022-12-01T06:05:32;1.10;43.60
22923;DHT22;11627;51.322;22.816;2022-12-01T06:07:58;1.10;44.60
22923;DHT22;11627;51.322;22.816;2022-12-01T06:10:23;1.40;45.10
22923;DHT22;11627;51.322;22.816;2022-12-01T06:12:49;1.10;45.00
22923;DHT22;11627;51.322;22.816;2022-12-01T06:15:15;1.10;44.80
22923;DHT22;11627;51.322;22.816;2022-12-01T06:17:40;1.20;45.20
22923;DHT22;11627;51.322;22.816;2022-12-01T06:20:07;1.20;43.70
22923;DHT22;11627;51.322;22.816;2022-12-01T06:22:33;1.20;41.80
22923;DHT22;11627;51.322;22.816;2022-12-01T06:24:59;1.20;43.50
22923;DHT22;11627;51.322;22.816;2022-12-01T06:27:24;1.20;43.60
22923;DHT22;11627;51.322;22.816;2022-12-01T06:29:50;1.20;44.00
22923;DHT22;11627;51.322;22.816;2022-12-01T06:32:16;1.20;41.10
22923;DHT22;11627;51.322;22.816;2022-12-01T06:34:41;1.20;39.50
22923;DHT22;11627;51.322;22.816;2022-12-01T06:37:08;1.10;41.10
22923;DHT22;11627;51.322;22.816;2022-12-01T06:39:34;1.10;41.80
22923;DHT22;11627;51.322;22.816;2022-12-01T06:41:59;1.10;43.80
22923;DHT22;11627;51.322;22.816;2022-12-01T06:44:25;1.10;44.60
22923;DHT22;11627;51.322;22.816;2022-12-01T06:46:50;1.10;44.10
22923;DHT22;11627;51.322;22.816;2022-12-01T06:49:17;1.20;42.90
22923;DHT22;11627;51.322;22.816;2022-12-01T06:51:44;1.20;43.70
22923;DHT22;11627;51.322;22.816;2022-12-01T06:54:11;1.30;42.00
22923;DHT22;11627;51.322;22.816;2022-12-01T06:56:37;1.20;41.50
22923;DHT22;11627;51.322;22.816;2022-12-01T06:59:04;1.20;43.00
22923;DHT22;11627;51.322;22.816;2022-12-01T07:01:30;1.20;45.00
22923;DHT22;11627;51.322;22.816;2022-12-01T07:03:55;1.20;45.50
22923;DHT22;11627;51.322;22.816;2022-12-01T07:06:21;1.10;46.60
22923;DHT22;11627;51.322;22.816;2022-12-01T07:08:46;1.10;48.80
22923;DHT22;11627;51.322;22.816;2022-12-01T07:11:14;1.20;50.10
22923;DHT22;11627;51.322;22.816;2022-12-01T07:13:43;1.20;48.20
22923;DHT22;11627;51.322;22.816;2022-12-01T07:16:14;1.20;49.30
22923;DHT22;11627;51.322;22.816;2022-12-01T07:18:40;1.10;49.50
22923;DHT22;11627;51.322;22.816;2022-12-01T07:21:09;1.10;51.60
22923;DHT22;11627;51.322;22.816;2022-12-01T07:23:34;1.10;52.30
22923;DHT22;11627;51.322;22.816;2022-12-01T07:26:02;1.10;53.10
22923;DHT22;11627;51.322;22.816;2022-12-01T07:28:28;1.10;52.80
22923;DHT22;11627;51.322;22.816;2022-12-01T07:31:00;1.00;53.90
22923;DHT22;11627;51.322;22.816;2022-12-01T07:33:25;1.00;56.30
22923;DHT22;11627;51.322;22.816;2022-12-01T07:35:52;1.00;54.50
22923;DHT22;11627;51.322;22.816;2022-12-01T07:38:18;1.00;55.60
22923;DHT22;11627;51.322;22.816;2022-12-01T07:40:43;0.90;56.20
22923;DHT22;11627;51.322;22.816;2022-12-01T07:43:09;1.00;57.10
22923;DHT22;11627;51.322;22.816;2022-12-01T07:45:35;1.00;57.10
22923;DHT22;11627;51.322;22.816;2022-12-01T07:48:00;1.00;57.30
22923;DHT22;11627;51.322;22.816;2022-12-01T07:50:26;1.00;57.30
22923;DHT22;11627;51.322;22.816;2022-12-01T07:52:51;0.90;57.00
22923;DHT22;11627;51.322;22.816;2022-12-01T07:55:17;1.40;57.20
22923;DHT22;11627;51.322;22.816;2022-12-01T07:57:43;1.00;57.30
22923;DHT22;11627;51.322;22.816;2022-12-01T08:00:08;0.90;55.90
22923;DHT22;11627;51.322;22.816;2022-12-01T08:02:34;0.90;55.20
22923;DHT22;11627;51.322;22.816;2022-12-01T08:05:00;1.00;54.40
22923;DHT22;11627;51.322;22.816;2022-12-01T08:07:25;1.00;53.60
22923;DHT22;11627;51.322;22.816;2022-12-01T08:09:51;0.90;54.10
22923;DHT22;11627;51.322;22.816;2022-12-01T08:12:16;1.50;54.70
22923;DHT22;11627;51.322;22.816;2022-12-01T08:14:42;0.90;52.50
22923;DHT22;11627;51.322;22.816;2022-12-01T08:17:08;1.00;50.70
22923;DHT22;11627;51.322;22.816;2022-12-01T08:19:33;1.00;49.80
22923;DHT22;11627;51.322;22.816;2022-12-01T08:21:59;0.90;49.50
22923;DHT22;11627;51.322;22.816;2022-12-01T08:24:24;1.00;47.10
22923;DHT22;11627;51.322;22.816;2022-12-01T08:26:50;0.80;48.00
22923;DHT22;11627;51.322;22.816;2022-12-01T08:29:16;0.80;49.70
22923;DHT22;11627;51.322;22.816;2022-12-01T08:31:41;0.90;48.80
22923;DHT22;11627;51.322;22.816;2022-12-01T08:34:07;0.80;47.80
22923;DHT22;11627;51.322;22.816;2022-12-01T08:36:33;0.80;47.80
22923;DHT22;11627;51.322;22.816;2022-12-01T08:38:59;0.80;46.90
22923;DHT22;11627;51.322;22.816;2022-12-01T08:41:25;0.80;46.10
22923;DHT22;11627;51.322;22.816;2022-12-01T08:43:51;0.80;46.00
22923;DHT22;11627;51.322;22.816;2022-12-01T08:46:17;0.80;45.80
22923;DHT22;11627;51.322;22.816;2022-12-01T08:48:42;0.80;43.80
22923;DHT22;11627;51.322;22.816;2022-12-01T08:51:10;0.80;44.30
22923;DHT22;11627;51.322;22.816;2022-12-01T08:53:38;0.80;43.90
22923;DHT22;11627;51.322;22.816;2022-12-01T08:56:19;0.80;40.80
22923;DHT22;11627;51.322;22.816;2022-12-01T08:58:45;0.80;41.00
22923;DHT22;11627;51.322;22.816;2022-12-01T09:01:14;0.80;40.60
22923;DHT22;11627;51.322;22.816;2022-12-01T09:03:41;0.80;39.10
22923;DHT22;11627;51.322;22.816;2022-12-01T09:06:10;0.80;38.40
22923;DHT22;11627;51.322;22.816;2022-12-01T09:08:36;1.90;36.40
22923;DHT22;11627;51.322;22.816;2022-12-01T09:11:05;0.80;37.00
22923;DHT22;11627;51.322;22.816;2022-12-01T09:13:33;0.70;38.70
22923;DHT22;11627;51.322;22.816;2022-12-01T09:16:05;0.80;36.30
22923;DHT22;11627;51.322;22.816;2022-12-01T09:18:31;0.80;33.20
22923;DHT22;11627;51.322;22.816;2022-12-01T09:20:57;1.30;30.00
22923;DHT22;11627;51.322;22.816;2022-12-01T09:23:24;0.90;29.50
22923;DHT22;11627;51.322;22.816;2022-12-01T09:25:51;0.70;29.40
22923;DHT22;11627;51.322;22.816;2022-12-01T09:28:18;0.80;29.90
22923;DHT22;11627;51.322;22.816;2022-12-01T09:30:45;0.60;28.30
22923;DHT22;11627;51.322;22.816;2022-12-01T09:33:11;0.70;27.80
22923;DHT22;11627;51.322;22.816;2022-12-01T09:35:37;0.70;29.40
22923;DHT22;11627;51.322;22.816;2022-12-01T09:38:03;0.70;30.60
22923;DHT22;11627;51.322;22.816;2022-12-01T09:40:35;0.60;29.90
22923;DHT22;11627;51.322;22.816;2022-12-01T09:43:03;0.70;28.80
22923;DHT22;11627;51.322;22.816;2022-12-01T09:45:33;0.70;27.30
22923;DHT22;11627;51.322;22.816;2022-12-01T09:48:02;1.20;27.90
22923;DHT22;11627;51.322;22.816;2022-12-01T09:50:30;0.80;28.10
22923;DHT22;11627;51.322;22.816;2022-12-01T09:53:01;1.60;25.90
22923;DHT22;11627;51.322;22.816;2022-12-01T09:55:28;0.80;23.20
22923;DHT22;11627;51.322;22.816;2022-12-01T09:57:57;2.00;23.70
22923;DHT22;11627;51.322;22.816;2022-12-01T10:00:26;0.80;22.90
22923;DHT22;11627;51.322;22.816;2022-12-01T10:05:59;0.00;21.00
22923;DHT22;11627;51.322;22.816;2022-12-01T10:08:29;0.80;21.30
22923;DHT22;11627;51.322;22.816;2022-12-01T10:11:12;1.50;22.80
22923;DHT22;11627;51.322;22.816;2022-12-01T10:13:41;1.80;23.90
22923;DHT22;11627;51.322;22.816;2022-12-01T10:16:10;0.90;19.80
22923;DHT22;11627;51.322;22.816;2022-12-01T10:19:04;0.80;20.60
22923;DHT22;11627;51.322;22.816;2022-12-01T10:24:57;0.90;17.60
22923;DHT22;11627;51.322;22.816;2022-12-01T10:30:14;0.90;14.70
22923;DHT22;11627;51.322;22.816;2022-12-01T10:35:22;0.90;11.50
22923;DHT22;11627;51.322;22.816;2022-12-01T10:37:56;0.90;13.30
22923;DHT22;11627;51.322;22.816;2022-12-01T10:40:22;0.90;15.90
22923;DHT22;11627;51.322;22.816;2022-12-01T10:42:49;0.80;14.40
22923;DHT22;11627;51.322;22.816;2022-12-01T10:45:27;0.80;14.00
22923;DHT22;11627;51.322;22.816;2022-12-01T10:48:12;0.80;14.80
22923;DHT22;11627;51.322;22.816;2022-12-01T10:50:48;0.90;15.30
22923;DHT22;11627;51.322;22.816;2022-12-01T10:53:28;0.90;14.50
22923;DHT22;11627;51.322;22.816;2022-12-01T10:56:08;0.90;9.60
22923;DHT22;11627;51.322;22.816;2022-12-01T10:59:02;0.80;8.10
22923;DHT22;11627;51.322;22.816;2022-12-01T11:01:31;0.80;9.10
22923;DHT22;11627;51.322;22.816;2022-12-01T11:04:05;0.70;9.60
22923;DHT22;11627;51.322;22.816;2022-12-01T11:06:31;0.70;12.90
22923;DHT22;11627;51.322;22.816;2022-12-01T11:09:03;0.80;12.90
22923;DHT22;11627;51.322;22.816;2022-12-01T11:11:38;0.70;12.30
22923;DHT22;11627;51.322;22.816;2022-12-01T11:14:15;0.70;12.90
22923;DHT22;11627;51.322;22.816;2022-12-01T11:16:44;0.70;15.00
22923;DHT22;11627;51.322;22.816;2022-12-01T11:21:49;0.70;19.20
22923;DHT22;11627;51.322;22.816;2022-12-01T11:24:26;0.70;18.00
22923;DHT22;11627;51.322;22.816;2022-12-01T11:26:53;0.80;17.20
22923;DHT22;11627;51.322;22.816;2022-12-01T11:29:30;0.80;16.80
22923;DHT22;11627;51.322;22.816;2022-12-01T11:31:58;0.80;16.60
22923;DHT22;11627;51.322;22.816;2022-12-01T11:34:27;0.70;16.20
22923;DHT22;11627;51.322;22.816;2022-12-01T11:36:56;0.80;15.40
22923;DHT22;11627;51.322;22.816;2022-12-01T11:39:34;0.80;9.80
22923;DHT22;11627;51.322;22.816;2022-12-01T11:42:15;0.70;7.90
22923;DHT22;11627;51.322;22.816;2022-12-01T11:45:36;0.70;7.80
22923;DHT22;11627;51.322;22.816;2022-12-01T11:50:26;0.60;8.40
22923;DHT22;11627;51.322;22.816;2022-12-01T11:52:54;0.60;11.70
22923;DHT22;11627;51.322;22.816;2022-12-01T11:55:22;0.60;13.40
22923;DHT22;11627;51.322;22.816;2022-12-01T11:57:52;0.50;16.50
22923;DHT22;11627;51.322;22.816;2022-12-01T12:00:22;0.60;17.40
22923;DHT22;11627;51.322;22.816;2022-12-01T12:08:40;0.60;12.80
22923;DHT22;11627;51.322;22.816;2022-12-01T12:11:29;0.60;10.50
22923;DHT22;11627;51.322;22.816;2022-12-01T12:17:44;0.50;14.00
22923;DHT22;11627;51.322;22.816;2022-12-01T12:32:16;0.50;10.80
22923;DHT22;11627;51.322;22.816;2022-12-01T12:43:03;0.40;16.20
22923;DHT22;11627;51.322;22.816;2022-12-01T12:48:52;0.40;18.60
22923;DHT22;11627;51.322;22.816;2022-12-01T12:51:39;0.40;19.80
22923;DHT22;11627;51.322;22.816;2022-12-01T12:54:34;0.40;20.60
22923;DHT22;11627;51.322;22.816;2022-12-01T12:57:20;0.40;20.30
22923;DHT22;11627;51.322;22.816;2022-12-01T13:02:41;0.50;17.40
22923;DHT22;11627;51.322;22.816;2022-12-01T13:08:46;0.40;14.20
22923;DHT22;11627;51.322;22.816;2022-12-01T13:11:31;0.30;11.40
22923;DHT22;11627;51.322;22.816;2022-12-01T13:14:09;0.30;12.50
22923;DHT22;11627;51.322;22.816;2022-12-01T13:16:41;0.30;14.80
22923;DHT22;11627;51.322;22.816;2022-12-01T13:19:32;0.40;16.00
22923;DHT22;11627;51.322;22.816;2022-12-01T13:22:04;0.40;12.90
22923;DHT22;11627;51.322;22.816;2022-12-01T13:24:32;0.40;10.70
22923;DHT22;11627;51.322;22.816;2022-12-01T13:27:19;0.40;8.10
22923;DHT22;11627;51.322;22.816;2022-12-01T13:29:50;0.40;7.50
22923;DHT22;11627;51.322;22.816;2022-12-01T13:34:52;0.30;8.20
22923;DHT22;11627;51.322;22.816;2022-12-01T13:37:26;0.30;8.30
22923;DHT22;11627;51.322;22.816;2022-12-01T13:39:53;0.30;10.60
22923;DHT22;11627;51.322;22.816;2022-12-01T13:42:23;0.30;10.00
22923;DHT22;11627;51.322;22.816;2022-12-01T13:44:54;0.30;11.70
22923;DHT22;11627;51.322;22.816;2022-12-01T13:47:47;0.30;10.60
22923;DHT22;11627;51.322;22.816;2022-12-01T14:04:43;0.20;6.60
22923;DHT22;11627;51.322;22.816;2022-12-01T14:06:45;0.10;8.30
22923;DHT22;11627;51.322;22.816;2022-12-01T14:09:23;0.60;11.00
22923;DHT22;11627;51.322;22.816;2022-12-01T14:12:15;0.10;7.80
22923;DHT22;11627;51.322;22.816;2022-12-01T14:15:32;0.00;9.90
22923;DHT22;11627;51.322;22.816;2022-12-01T14:17:35;0.00;11.80
22923;DHT22;11627;51.322;22.816;2022-12-01T14:20:17;0.00;10.80
22923;DHT22;11627;51.322;22.816;2022-12-01T14:22:45;0.00;8.80
22923;DHT22;11627;51.322;22.816;2022-12-01T14:27:45;0.00;1.60
22923;DHT22;11627;51.322;22.816;2022-12-01T14:36:38;-0.10;1.00
22923;DHT22;11627;51.322;22.816;2022-12-01T14:39:17;-0.10;1.00
22923;DHT22;11627;51.322;22.816;2022-12-01T14:41:52;-0.10;1.00
22923;DHT22;11627;51.322;22.816;2022-12-01T14:46:57;-0.20;1.00
22923;DHT22;11627;51.322;22.816;2022-12-01T14:49:30;-0.20;1.00
22923;DHT22;11627;51.322;22.816;2022-12-01T14:52:13;-0.20;1.00
22923;DHT22;11627;51.322;22.816;2022-12-01T14:54:46;-0.20;1.00
22923;DHT22;11627;51.322;22.816;2022-12-01T14:57:15;-0.20;1.00
22923;DHT22;11627;51.322;22.816;2022-12-01T14:59:41;-0.20;1.00
22923;DHT22;11627;51.322;22.816;2022-12-01T15:02:09;-0.20;1.00
22923;DHT22;11627;51.322;22.816;2022-12-01T15:07:37;-0.40;1.00
22923;DHT22;11627;51.322;22.816;2022-12-01T15:10:04;-0.30;1.00
22923;DHT22;11627;51.322;22.816;2022-12-01T15:12:31;-0.30;1.00
22923;DHT22;11627;51.322;22.816;2022-12-01T15:14:56;-0.20;1.00
22923;DHT22;11627;51.322;22.816;2022-12-01T15:17:30;-0.40;1.00
22923;DHT22;11627;51.322;22.816;2022-12-01T15:19:57;-0.40;1.00
22923;DHT22;11627;51.322;22.816;2022-12-01T15:22:27;-0.40;1.00
22923;DHT22;11627;51.322;22.816;2022-12-01T15:24:54;-0.50;1.00
22923;DHT22;11627;51.322;22.816;2022-12-01T15:27:28;-0.50;1.00
22923;DHT22;11627;51.322;22.816;2022-12-01T15:29:55;-0.40;1.00
22923;DHT22;11627;51.322;22.816;2022-12-01T15:32:23;-0.50;1.00
22923;DHT22;11627;51.322;22.816;2022-12-01T15:34:53;-0.40;1.00
22923;DHT22;11627;51.322;22.816;2022-12-01T15:37:21;-0.40;1.00
22923;DHT22;11627;51.322;22.816;2022-12-01T15:40:00;-0.40;1.00
22923;DHT22;11627;51.322;22.816;2022-12-01T15:42:32;-0.40;1.00
22923;DHT22;11627;51.322;22.816;2022-12-01T15:47:50;-0.40;1.00
22923;DHT22;11627;51.322;22.816;2022-12-01T15:50:28;-0.30;1.00
22923;DHT22;11627;51.322;22.816;2022-12-01T15:52:56;-0.40;1.00
22923;DHT22;11627;51.322;22.816;2022-12-01T15:55:29;-0.40;1.00
22923;DHT22;11627;51.322;22.816;2022-12-01T15:57:55;-0.40;1.00
22923;DHT22;11627;51.322;22.816;2022-12-01T16:00:21;-0.40;1.00
22923;DHT22;11627;51.322;22.816;2022-12-01T16:02:55;-0.30;1.00
22923;DHT22;11627;51.322;22.816;2022-12-01T16:05:24;-0.40;1.00
22923;DHT22;11627;51.322;22.816;2022-12-01T16:07:51;-0.30;1.00
22923;DHT22;11627;51.322;22.816;2022-12-01T16:10:34;-0.40;1.00
22923;DHT22;11627;51.322;22.816;2022-12-01T16:13:38;-0.30;1.00
22923;DHT22;11627;51.322;22.816;2022-12-01T16:21:49;-0.30;1.00
22923;DHT22;11627;51.322;22.816;2022-12-01T16:24:27;-0.40;1.00
22923;DHT22;11627;51.322;22.816;2022-12-01T16:27:03;-0.40;1.00
22923;DHT22;11627;51.322;22.816;2022-12-01T16:29:43;-0.30;1.00
22923;DHT22;11627;51.322;22.816;2022-12-01T16:32:22;-0.30;1.00
22923;DHT22;11627;51.322;22.816;2022-12-01T16:34:52;-0.40;1.00
22923;DHT22;11627;51.322;22.816;2022-12-01T16:37:18;-0.30;1.00
22923;DHT22;11627;51.322;22.816;2022-12-01T16:39:46;-0.30;1.00
22923;DHT22;11627;51.322;22.816;2022-12-01T16:42:14;-0.30;1.00
22923;DHT22;11627;51.322;22.816;2022-12-01T16:44:41;-0.30;1.00
22923;DHT22;11627;51.322;22.816;2022-12-01T16:47:21;-0.30;1.00
22923;DHT22;11627;51.322;22.816;2022-12-01T16:49:48;-0.20;1.00
22923;DHT22;11627;51.322;22.816;2022-12-01T16:52:14;-0.30;1.00
22923;DHT22;11627;51.322;22.816;2022-12-01T16:54:40;-0.30;1.00
22923;DHT22;11627;51.322;22.816;2022-12-01T16:57:06;-0.40;1.00
22923;DHT22;11627;51.322;22.816;2022-12-01T16:59:31;-0.40;1.00
22923;DHT22;11627;51.322;22.816;2022-12-01T17:01:58;-0.40;1.00
22923;DHT22;11627;51.322;22.816;2022-12-01T17:04:25;-0.40;1.00
22923;DHT22;11627;51.322;22.816;2022-12-01T17:06:51;-0.40;1.00
22923;DHT22;11627;51.322;22.816;2022-12-01T17:09:16;-0.40;1.00
22923;DHT22;11627;51.322;22.816;2022-12-01T17:11:42;-0.40;1.00
22923;DHT22;11627;51.322;22.816;2022-12-01T17:14:07;-0.40;1.00
22923;DHT22;11627;51.322;22.816;2022-12-01T17:16:36;-0.30;1.00
22923;DHT22;11627;51.322;22.816;2022-12-01T17:19:03;-0.40;1.00
22923;DHT22;11627;51.322;22.816;2022-12-01T17:21:29;-0.20;1.00
22923;DHT22;11627;51.322;22.816;2022-12-01T17:23:55;-0.30;1.00
22923;DHT22;11627;51.322;22.816;2022-12-01T17:26:21;-0.20;1.00
22923;DHT22;11627;51.322;22.816;2022-12-01T17:28:47;-0.20;1.00
22923;DHT22;11627;51.322;22.816;2022-12-01T17:31:13;-0.20;1.00
22923;DHT22;11627;51.322;22.816;2022-12-01T17:33:39;-0.20;1.00
22923;DHT22;11627;51.322;22.816;2022-12-01T17:36:09;-0.10;1.00
22923;DHT22;11627;51.322;22.816;2022-12-01T17:38:38;-0.20;1.00
22923;DHT22;11627;51.322;22.816;2022-12-01T17:43:33;-0.30;1.00
22923;DHT22;11627;51.322;22.816;2022-12-01T17:45:59;-0.30;1.00
22923;DHT22;11627;51.322;22.816;2022-12-01T17:48:25;-0.20;1.00
22923;DHT22;11627;51.322;22.816;2022-12-01T17:50:50;-0.30;1.00
22923;DHT22;11627;51.322;22.816;2022-12-01T17:53:17;-0.30;1.00
22923;DHT22;11627;51.322;22.816;2022-12-01T17:55:43;-0.30;1.00
22923;DHT22;11627;51.322;22.816;2022-12-01T17:58:11;-0.20;1.00
22923;DHT22;11627;51.322;22.816;2022-12-01T18:00:38;-0.30;1.00
22923;DHT22;11627;51.322;22.816;2022-12-01T18:03:05;-0.30;1.00
22923;DHT22;11627;51.322;22.816;2022-12-01T18:05:33;-0.30;1.00